createdAt,value
2023-02-14T00:00:01.930Z,1019.04
2023-02-14T00:05:02.232Z,1019.03
2023-02-14T00:10:01.358Z,1019.03
2023-02-14T00:15:01.440Z,1019.03
2023-02-14T00:20:01.588Z,1019.07
2023-02-14T00:25:01.908Z,1019
2023-02-14T00:30:02.335Z,1019
2023-02-14T00:35:02.150Z,1018.88
2023-02-14T00:40:02.169Z,1018.78
2023-02-14T00:45:01.398Z,1018.85
2023-02-14T00:50:01.962Z,1018.83
2023-02-14T00:55:01.903Z,1018.78
2023-02-14T01:00:02.010Z,1018.71
2023-02-14T01:05:01.493Z,1018.66
2023-02-14T01:10:01.948Z,1018.65
2023-02-14T01:15:02.041Z,1018.59
2023-02-14T01:20:02.295Z,1018.57
2023-02-14T01:25:02.290Z,1018.58
2023-02-14T01:30:01.495Z,1018.62
2023-02-14T01:35:01.978Z,1018.62
2023-02-14T01:40:01.437Z,1018.65
2023-02-14T01:45:01.376Z,1018.57
2023-02-14T01:50:02.080Z,1018.52
2023-02-14T01:55:01.800Z,1018.49
2023-02-14T02:00:02.155Z,1018.46
2023-02-14T02:05:01.551Z,1018.37
2023-02-14T02:10:01.347Z,1018.39
2023-02-14T02:15:01.795Z,1018.39
2023-02-14T02:20:01.685Z,1018.5
2023-02-14T02:25:01.941Z,1018.41
2023-02-14T02:30:02.235Z,1018.37
2023-02-14T02:35:01.580Z,1018.28
2023-02-14T02:40:02.167Z,1018.28
2023-02-14T02:45:02.183Z,1018.31
2023-02-14T02:50:01.351Z,1018.26
2023-02-14T02:55:01.594Z,1018.28
2023-02-14T03:00:02.007Z,1018.26
2023-02-14T03:05:01.436Z,1018.18
2023-02-14T03:10:01.517Z,1018.26
2023-02-14T03:15:01.727Z,1018.31
2023-02-14T03:20:01.458Z,1018.23
2023-02-14T03:25:01.739Z,1018.23
2023-02-14T03:30:01.343Z,1018.24
2023-02-14T03:35:02.145Z,1018.23
2023-02-14T03:40:01.835Z,1018.29
2023-02-14T03:45:02.048Z,1018.32
2023-02-14T03:50:02.240Z,1018.4
2023-02-14T03:55:02.175Z,1018.34
2023-02-14T04:00:02.282Z,1018.27
2023-02-14T04:05:02.132Z,1018.28
2023-02-14T04:10:01.407Z,1018.28
2023-02-14T04:15:01.715Z,1018.28
2023-02-14T04:20:02.258Z,1018.22
2023-02-14T04:25:01.569Z,1018.17
2023-02-14T04:30:01.756Z,1018.16
2023-02-14T04:35:01.818Z,1018.15
2023-02-14T04:40:02.107Z,1018.1
2023-02-14T04:45:04.187Z,1018.08
2023-02-14T04:50:01.875Z,1018.14
2023-02-14T04:55:01.538Z,1018.12
2023-02-14T05:00:01.982Z,1018.08
2023-02-14T05:05:02.200Z,1018.08
2023-02-14T05:10:01.389Z,1018.09
2023-02-14T05:15:01.512Z,1018
2023-02-14T05:20:01.752Z,1017.89
2023-02-14T05:25:01.844Z,1017.87
2023-02-14T05:30:01.772Z,1017.87
2023-02-14T05:35:01.815Z,1017.85
2023-02-14T05:40:01.843Z,1017.86
2023-02-14T05:45:02.095Z,1017.83
2023-02-14T05:50:01.305Z,1017.8
2023-02-14T05:55:01.308Z,1017.8
2023-02-14T06:00:02.004Z,1017.84
2023-02-14T06:05:01.844Z,1017.85
2023-02-14T06:10:01.909Z,1017.9
2023-02-14T06:15:02.098Z,1017.88
2023-02-14T06:20:02.272Z,1017.99
2023-02-14T06:25:01.737Z,1018.02
2023-02-14T06:30:01.848Z,1017.96
2023-02-14T06:35:01.586Z,1017.92
2023-02-14T06:40:01.710Z,1017.96
2023-02-14T06:45:01.364Z,1018.02
2023-02-14T06:50:01.685Z,1017.97
2023-02-14T06:55:01.532Z,1018.08
2023-02-14T07:00:01.337Z,1018.04
2023-02-14T07:05:02.108Z,1018.11
2023-02-14T07:10:02.251Z,1018.07
2023-02-14T07:15:02.127Z,1018.01
2023-02-14T07:20:02.244Z,1018.07
2023-02-14T07:25:02.141Z,1017.93
2023-02-14T07:30:01.993Z,1017.93
2023-02-14T07:35:02.084Z,1017.9
2023-02-14T07:40:01.947Z,1017.91
2023-02-14T07:45:09.393Z,1017.96
2023-02-14T07:50:01.836Z,1018
2023-02-14T07:55:01.890Z,1018.01
2023-02-14T08:00:01.861Z,1017.96
2023-02-14T08:05:02.163Z,1017.93
2023-02-14T08:10:02.089Z,1018.06
2023-02-14T08:15:02.015Z,1018.06
2023-02-14T08:20:02.086Z,1018.08
2023-02-14T08:25:01.903Z,1018.11
2023-02-14T08:30:02.363Z,1018.1
2023-02-14T08:35:01.809Z,1018.16
2023-02-14T08:40:01.914Z,1018.11
2023-02-14T08:45:01.824Z,1018.13
2023-02-14T08:50:01.985Z,1018.17
2023-02-14T08:55:01.988Z,1018.15
2023-02-14T09:00:02.176Z,1018.22
2023-02-14T09:05:01.601Z,1018.19
2023-02-14T09:10:01.956Z,1018.14
2023-02-14T09:15:02.225Z,1018.08
2023-02-14T09:20:02.215Z,1018.06
2023-02-14T09:25:02.270Z,1018.06
2023-02-14T09:30:02.381Z,1018.06
2023-02-14T09:35:01.335Z,1018.11
2023-02-14T09:40:01.579Z,1018.08
2023-02-14T09:45:01.704Z,1018.04
2023-02-14T09:50:01.966Z,1017.99
2023-02-14T09:55:01.841Z,1018
2023-02-14T10:00:01.747Z,1017.92
2023-02-14T10:05:02.050Z,1018.01
2023-02-14T10:10:01.291Z,1017.99
2023-02-14T10:15:01.439Z,1017.96
2023-02-14T10:20:01.686Z,1017.92
2023-02-14T10:25:01.978Z,1017.91
2023-02-14T10:30:02.094Z,1017.86
2023-02-14T10:35:02.171Z,1017.71
2023-02-14T10:40:01.682Z,1017.67
2023-02-14T10:45:02.076Z,1017.62
2023-02-14T10:50:02.053Z,1017.54
2023-02-14T10:55:02.088Z,1017.49
2023-02-14T11:00:02.058Z,1017.52
2023-02-14T11:05:01.947Z,1017.47
2023-02-14T11:10:02.099Z,1017.33
2023-02-14T11:15:02.155Z,1017.22
2023-02-14T11:20:02.188Z,1017.22
2023-02-14T11:25:04.471Z,1017.21
2023-02-14T11:30:02.162Z,1017.15
2023-02-14T11:35:01.878Z,1017.16
2023-02-14T11:40:01.910Z,1017.09
2023-02-14T11:45:01.769Z,1017.01
2023-02-14T11:50:02.005Z,1017
2023-02-14T11:55:02.226Z,1016.91
2023-02-14T12:00:02.016Z,1016.8
2023-02-14T12:05:02.176Z,1016.68
2023-02-14T12:10:01.302Z,1016.64
2023-02-14T12:15:02.170Z,1016.55
2023-02-14T12:20:02.254Z,1016.47
2023-02-14T12:25:01.943Z,1016.49
2023-02-14T12:30:02.190Z,1016.4
2023-02-14T12:35:01.442Z,1016.36
2023-02-14T12:40:01.544Z,1016.35
2023-02-14T12:45:01.723Z,1016.27
2023-02-14T12:50:01.998Z,1016.15
2023-02-14T12:55:02.010Z,1016.03
2023-02-14T13:00:02.135Z,1015.94
2023-02-14T13:05:01.688Z,1015.86
2023-02-14T13:10:01.376Z,1015.78
2023-02-14T13:15:01.539Z,1015.73
2023-02-14T13:20:01.689Z,1015.72
2023-02-14T13:25:01.887Z,1015.64
2023-02-14T13:30:01.933Z,1015.57
2023-02-14T13:35:02.028Z,1015.46
2023-02-14T13:40:02.125Z,1015.4
2023-02-14T13:45:02.122Z,1015.41
2023-02-14T13:50:01.306Z,1015.42
2023-02-14T13:55:01.548Z,1015.24
2023-02-14T14:00:01.945Z,1015.21
2023-02-14T14:05:02.060Z,1015.15
2023-02-14T14:10:01.667Z,1015.2
2023-02-14T14:15:01.961Z,1015.2
2023-02-14T14:20:02.167Z,1015.08
2023-02-14T14:25:01.713Z,1015.09
2023-02-14T14:30:01.523Z,1014.97
2023-02-14T14:35:01.728Z,1014.95
2023-02-14T14:40:01.637Z,1014.98
2023-02-14T14:45:02.047Z,1014.93
2023-02-14T14:50:02.118Z,1014.89
2023-02-14T14:55:02.226Z,1014.86
2023-02-14T15:00:01.584Z,1014.83
2023-02-14T15:05:02.002Z,1014.83
2023-02-14T15:10:02.073Z,1014.78
2023-02-14T15:15:02.041Z,1014.78
2023-02-14T15:20:02.128Z,1014.77
2023-02-14T15:25:01.289Z,1014.77
2023-02-14T15:30:01.731Z,1014.62
2023-02-14T15:35:01.967Z,1014.67
2023-02-14T15:40:02.089Z,1014.63
2023-02-14T15:45:02.029Z,1014.65
2023-02-14T15:50:02.792Z,1014.6
2023-02-14T15:55:01.921Z,1014.56
2023-02-14T16:00:01.995Z,1014.61
2023-02-14T16:05:02.078Z,1014.59
2023-02-14T16:10:02.149Z,1014.66
2023-02-14T16:15:02.031Z,1014.62
2023-02-14T16:20:02.218Z,1014.67
2023-02-14T16:25:02.200Z,1014.73
2023-02-14T16:30:02.236Z,1014.74
2023-02-14T16:35:01.507Z,1014.71
2023-02-14T16:40:01.699Z,1014.68
2023-02-14T16:45:01.547Z,1014.66
2023-02-14T16:50:02.128Z,1014.7
2023-02-14T16:55:01.329Z,1014.68
2023-02-14T17:00:01.772Z,1014.72
2023-02-14T17:05:02.034Z,1014.76
2023-02-14T17:10:02.183Z,1014.75
2023-02-14T17:15:02.205Z,1014.78
2023-02-14T17:20:02.047Z,1014.84
2023-02-14T17:25:02.005Z,1014.79
2023-02-14T17:30:02.095Z,1014.86
2023-02-14T17:35:02.154Z,1014.81
2023-02-14T17:40:01.491Z,1014.79
2023-02-14T17:45:01.747Z,1014.81
2023-02-14T17:50:01.862Z,1014.95
2023-02-14T17:55:01.746Z,1014.92
2023-02-14T18:00:01.946Z,1014.92
2023-02-14T18:05:01.930Z,1014.9
2023-02-14T18:10:01.896Z,1014.91
2023-02-14T18:15:01.954Z,1014.91
2023-02-14T18:20:02.045Z,1014.82
2023-02-14T18:25:02.138Z,1014.8
2023-02-14T18:30:01.525Z,1014.81
2023-02-14T18:35:01.590Z,1014.88
2023-02-14T18:40:01.827Z,1014.84
2023-02-14T18:45:02.003Z,1014.85
2023-02-14T18:50:02.004Z,1014.76
2023-02-14T18:55:01.900Z,1014.66
2023-02-14T19:00:01.797Z,1014.68
2023-02-14T19:05:02.098Z,1014.65
2023-02-14T19:10:02.319Z,1014.54
2023-02-14T19:15:02.117Z,1014.54
2023-02-14T19:20:02.189Z,1014.6
2023-02-14T19:25:01.594Z,1014.54
2023-02-14T19:30:01.760Z,1014.57
2023-02-14T19:35:01.419Z,1014.43
2023-02-14T19:40:01.503Z,1014.38
2023-02-14T19:45:01.594Z,1014.38
2023-02-14T19:50:01.938Z,1014.36
2023-02-14T19:55:02.147Z,1014.28
2023-02-14T20:00:02.218Z,1014.33
2023-02-14T20:05:01.299Z,1014.26
2023-02-14T20:10:01.798Z,1014.29
2023-02-14T20:15:02.108Z,1014.3
2023-02-14T20:20:02.313Z,1014.35
2023-02-14T20:25:01.293Z,1014.26
2023-02-14T20:30:01.805Z,1014.3
2023-02-14T20:35:02.004Z,1014.25
2023-02-14T20:40:01.588Z,1014.29
2023-02-14T20:45:01.403Z,1014.17
2023-02-14T20:50:01.564Z,1014.15
2023-02-14T20:55:01.783Z,1014.15
2023-02-14T21:00:01.940Z,1014.07
2023-02-14T21:05:02.253Z,1014.07
2023-02-14T21:10:02.238Z,1014.06
2023-02-14T21:15:02.169Z,1014.06
2023-02-14T21:20:02.186Z,1014.04
2023-02-14T21:25:01.650Z,1014.09
2023-02-14T21:30:01.668Z,1014.1
2023-02-14T21:35:01.621Z,1014.06
2023-02-14T21:40:02.131Z,1013.96
2023-02-14T21:45:01.323Z,1013.85
2023-02-14T21:50:01.689Z,1013.81
2023-02-14T21:55:01.974Z,1013.95
2023-02-14T22:00:01.596Z,1013.98
2023-02-14T22:05:02.251Z,1013.95
2023-02-14T22:10:01.377Z,1013.94
2023-02-14T22:15:01.517Z,1013.91
2023-02-14T22:20:01.886Z,1013.89
2023-02-14T22:25:01.970Z,1013.81
2023-02-14T22:30:02.115Z,1013.74
2023-02-14T22:35:02.151Z,1013.83
2023-02-14T22:40:01.430Z,1013.8
2023-02-14T22:45:01.736Z,1013.75
2023-02-14T22:50:01.815Z,1013.64
2023-02-14T22:55:01.868Z,1013.58
2023-02-14T23:00:01.930Z,1013.67
2023-02-14T23:05:01.606Z,1013.65
2023-02-14T23:10:02.072Z,1013.72
2023-02-14T23:15:02.013Z,1013.78
2023-02-14T23:20:02.174Z,1013.7
2023-02-14T23:25:01.268Z,1013.73
2023-02-14T23:30:01.787Z,1013.66
2023-02-14T23:35:01.828Z,1013.65
2023-02-14T23:40:01.823Z,1013.62
2023-02-14T23:45:01.383Z,1013.58
2023-02-14T23:50:01.600Z,1013.54
2023-02-14T23:55:01.776Z,1013.47
